sensor_id;sensor_type;location;lat;lon;timestamp;P1;durP1;ratioP1;P2;durP2;ratioP2
48751;SDS011;34544;48.836;9.174;2023-05-29T00:00:41;11.70;;;7.25;;
48751;SDS011;34544;48.836;9.174;2023-05-29T00:03:07;12.80;;;7.35;;
48751;SDS011;34544;48.836;9.174;2023-05-29T00:05:34;14.00;;;6.60;;
48751;SDS011;34544;48.836;9.174;2023-05-29T00:08:00;19.08;;;8.05;;
48751;SDS011;34544;48.836;9.174;2023-05-29T00:10:26;12.73;;;6.97;;
48751;SDS011;34544;48.836;9.174;2023-05-29T00:12:52;11.38;;;6.00;;
48751;SDS011;34544;48.836;9.174;2023-05-29T00:15:17;12.02;;;5.88;;
48751;SDS011;34544;48.836;9.174;2023-05-29T00:17:43;11.93;;;5.68;;
48751;SDS011;34544;48.836;9.174;2023-05-29T00:20:09;11.65;;;6.95;;
48751;SDS011;34544;48.836;9.174;2023-05-29T00:22:36;12.15;;;6.13;;
48751;SDS011;34544;48.836;9.174;2023-05-29T00:25:04;10.52;;;6.32;;
48751;SDS011;34544;48.836;9.174;2023-05-29T00:27:30;11.48;;;5.93;;
48751;SDS011;34544;48.836;9.174;2023-05-29T00:29:58;9.93;;;5.93;;
48751;SDS011;34544;48.836;9.174;2023-05-29T00:32:24;8.60;;;5.65;;
48751;SDS011;34544;48.836;9.174;2023-05-29T00:34:50;9.88;;;5.97;;
48751;SDS011;34544;48.836;9.174;2023-05-29T00:37:16;10.18;;;5.10;;
48751;SDS011;34544;48.836;9.174;2023-05-29T00:39:42;10.93;;;6.15;;
48751;SDS011;34544;48.836;9.174;2023-05-29T00:42:08;8.27;;;5.47;;
48751;SDS011;34544;48.836;9.174;2023-05-29T00:44:34;9.13;;;5.63;;
48751;SDS011;34544;48.836;9.174;2023-05-29T00:47:00;10.27;;;5.40;;
48751;SDS011;34544;48.836;9.174;2023-05-29T00:49:26;10.85;;;6.20;;
48751;SDS011;34544;48.836;9.174;2023-05-29T00:51:52;8.05;;;5.97;;
48751;SDS011;34544;48.836;9.174;2023-05-29T00:54:26;12.07;;;6.15;;
48751;SDS011;34544;48.836;9.174;2023-05-29T00:56:53;19.67;;;5.68;;
48751;SDS011;34544;48.836;9.174;2023-05-29T00:59:20;7.35;;;5.57;;
48751;SDS011;34544;48.836;9.174;2023-05-29T01:01:51;8.65;;;5.38;;
48751;SDS011;34544;48.836;9.174;2023-05-29T01:04:17;8.77;;;6.00;;
48751;SDS011;34544;48.836;9.174;2023-05-29T01:06:43;13.57;;;6.72;;
48751;SDS011;34544;48.836;9.174;2023-05-29T01:09:09;9.88;;;6.57;;
48751;SDS011;34544;48.836;9.174;2023-05-29T01:22:35;11.50;;;5.78;;
48751;SDS011;34544;48.836;9.174;2023-05-29T01:27:39;11.25;;;6.82;;
48751;SDS011;34544;48.836;9.174;2023-05-29T01:30:07;8.60;;;6.20;;
48751;SDS011;34544;48.836;9.174;2023-05-29T01:32:34;10.70;;;6.13;;
48751;SDS011;34544;48.836;9.174;2023-05-29T01:35:01;15.55;;;6.78;;
48751;SDS011;34544;48.836;9.174;2023-05-29T01:37:26;10.75;;;6.05;;
48751;SDS011;34544;48.836;9.174;2023-05-29T01:39:55;9.18;;;6.10;;
48751;SDS011;34544;48.836;9.174;2023-05-29T01:42:20;9.40;;;5.90;;
48751;SDS011;34544;48.836;9.174;2023-05-29T01:44:47;7.80;;;6.03;;
48751;SDS011;34544;48.836;9.174;2023-05-29T01:47:15;14.25;;;5.97;;
48751;SDS011;34544;48.836;9.174;2023-05-29T01:49:41;12.07;;;5.90;;
48751;SDS011;34544;48.836;9.174;2023-05-29T01:52:09;9.30;;;5.88;;
48751;SDS011;34544;48.836;9.174;2023-05-29T01:54:36;12.05;;;6.03;;
48751;SDS011;34544;48.836;9.174;2023-05-29T01:57:01;8.40;;;5.32;;
48751;SDS011;34544;48.836;9.174;2023-05-29T01:59:28;13.20;;;6.15;;
48751;SDS011;34544;48.836;9.174;2023-05-29T02:01:55;8.98;;;5.22;;
48751;SDS011;34544;48.836;9.174;2023-05-29T02:04:21;13.70;;;5.78;;
48751;SDS011;34544;48.836;9.174;2023-05-29T02:06:46;13.07;;;5.43;;
48751;SDS011;34544;48.836;9.174;2023-05-29T02:09:12;15.55;;;6.20;;
48751;SDS011;34544;48.836;9.174;2023-05-29T02:11:38;10.15;;;6.00;;
48751;SDS011;34544;48.836;9.174;2023-05-29T02:14:09;11.98;;;6.55;;
48751;SDS011;34544;48.836;9.174;2023-05-29T02:16:36;10.65;;;7.38;;
48751;SDS011;34544;48.836;9.174;2023-05-29T02:19:01;14.32;;;6.53;;
48751;SDS011;34544;48.836;9.174;2023-05-29T02:21:27;11.45;;;5.88;;
48751;SDS011;34544;48.836;9.174;2023-05-29T02:23:53;9.93;;;6.28;;
48751;SDS011;34544;48.836;9.174;2023-05-29T02:26:18;6.35;;;5.65;;
48751;SDS011;34544;48.836;9.174;2023-05-29T02:28:44;10.40;;;5.38;;
48751;SDS011;34544;48.836;9.174;2023-05-29T02:31:10;11.85;;;6.35;;
48751;SDS011;34544;48.836;9.174;2023-05-29T02:33:36;8.82;;;5.80;;
48751;SDS011;34544;48.836;9.174;2023-05-29T02:36:02;8.80;;;6.60;;
48751;SDS011;34544;48.836;9.174;2023-05-29T02:38:29;12.48;;;6.60;;
48751;SDS011;34544;48.836;9.174;2023-05-29T02:40:55;14.23;;;6.38;;
48751;SDS011;34544;48.836;9.174;2023-05-29T02:43:21;9.95;;;5.85;;
48751;SDS011;34544;48.836;9.174;2023-05-29T02:45:47;12.55;;;6.28;;
48751;SDS011;34544;48.836;9.174;2023-05-29T02:48:14;11.27;;;6.15;;
48751;SDS011;34544;48.836;9.174;2023-05-29T02:50:40;10.43;;;6.47;;
48751;SDS011;34544;48.836;9.174;2023-05-29T02:53:05;12.40;;;7.00;;
48751;SDS011;34544;48.836;9.174;2023-05-29T02:55:31;13.70;;;6.75;;
48751;SDS011;34544;48.836;9.174;2023-05-29T02:58:00;13.70;;;6.65;;
48751;SDS011;34544;48.836;9.174;2023-05-29T03:00:26;10.05;;;6.53;;
48751;SDS011;34544;48.836;9.174;2023-05-29T03:02:57;11.02;;;6.25;;
48751;SDS011;34544;48.836;9.174;2023-05-29T03:05:22;8.23;;;6.03;;
48751;SDS011;34544;48.836;9.174;2023-05-29T03:07:48;12.43;;;5.85;;
48751;SDS011;34544;48.836;9.174;2023-05-29T03:10:14;9.50;;;6.40;;
48751;SDS011;34544;48.836;9.174;2023-05-29T03:12:42;9.30;;;6.05;;
48751;SDS011;34544;48.836;9.174;2023-05-29T03:15:10;9.40;;;5.90;;
48751;SDS011;34544;48.836;9.174;2023-05-29T03:17:36;14.35;;;6.38;;
48751;SDS011;34544;48.836;9.174;2023-05-29T03:20:04;7.90;;;5.35;;
48751;SDS011;34544;48.836;9.174;2023-05-29T03:22:36;8.38;;;6.22;;
48751;SDS011;34544;48.836;9.174;2023-05-29T03:25:02;11.93;;;6.53;;
48751;SDS011;34544;48.836;9.174;2023-05-29T03:27:29;15.15;;;5.93;;
48751;SDS011;34544;48.836;9.174;2023-05-29T03:30:03;12.00;;;6.30;;
48751;SDS011;34544;48.836;9.174;2023-05-29T03:32:31;13.23;;;7.00;;
48751;SDS011;34544;48.836;9.174;2023-05-29T03:34:57;9.98;;;6.03;;
48751;SDS011;34544;48.836;9.174;2023-05-29T03:37:23;11.35;;;6.53;;
48751;SDS011;34544;48.836;9.174;2023-05-29T03:39:49;11.68;;;6.53;;
48751;SDS011;34544;48.836;9.174;2023-05-29T03:42:17;12.50;;;6.80;;
48751;SDS011;34544;48.836;9.174;2023-05-29T03:44:43;9.68;;;5.78;;
48751;SDS011;34544;48.836;9.174;2023-05-29T03:47:10;9.65;;;6.78;;
48751;SDS011;34544;48.836;9.174;2023-05-29T03:49:36;9.73;;;5.43;;
48751;SDS011;34544;48.836;9.174;2023-05-29T03:52:02;10.10;;;6.22;;
48751;SDS011;34544;48.836;9.174;2023-05-29T03:54:28;11.20;;;5.95;;
48751;SDS011;34544;48.836;9.174;2023-05-29T03:56:54;8.95;;;5.80;;
48751;SDS011;34544;48.836;9.174;2023-05-29T03:59:24;9.45;;;6.38;;
48751;SDS011;34544;48.836;9.174;2023-05-29T04:01:50;10.20;;;6.18;;
48751;SDS011;34544;48.836;9.174;2023-05-29T04:04:15;11.80;;;6.20;;
48751;SDS011;34544;48.836;9.174;2023-05-29T04:06:41;10.27;;;6.43;;
48751;SDS011;34544;48.836;9.174;2023-05-29T04:09:07;12.60;;;6.47;;
48751;SDS011;34544;48.836;9.174;2023-05-29T04:11:33;10.65;;;5.93;;
48751;SDS011;34544;48.836;9.174;2023-05-29T04:14:02;12.40;;;7.28;;
48751;SDS011;34544;48.836;9.174;2023-05-29T04:16:28;10.43;;;6.00;;
48751;SDS011;34544;48.836;9.174;2023-05-29T04:18:54;7.82;;;6.07;;
48751;SDS011;34544;48.836;9.174;2023-05-29T04:21:22;12.63;;;7.30;;
48751;SDS011;34544;48.836;9.174;2023-05-29T04:23:48;9.07;;;5.63;;
48751;SDS011;34544;48.836;9.174;2023-05-29T04:26:14;10.20;;;6.53;;
48751;SDS011;34544;48.836;9.174;2023-05-29T04:28:40;9.75;;;6.10;;
48751;SDS011;34544;48.836;9.174;2023-05-29T04:31:06;11.82;;;6.47;;
48751;SDS011;34544;48.836;9.174;2023-05-29T04:33:33;10.38;;;5.68;;
48751;SDS011;34544;48.836;9.174;2023-05-29T04:36:02;8.27;;;6.45;;
48751;SDS011;34544;48.836;9.174;2023-05-29T04:38:29;9.80;;;6.28;;
48751;SDS011;34544;48.836;9.174;2023-05-29T04:40:56;10.48;;;5.78;;
48751;SDS011;34544;48.836;9.174;2023-05-29T04:43:26;12.60;;;5.93;;
48751;SDS011;34544;48.836;9.174;2023-05-29T04:46:00;7.82;;;5.22;;
48751;SDS011;34544;48.836;9.174;2023-05-29T04:48:28;11.45;;;5.78;;
48751;SDS011;34544;48.836;9.174;2023-05-29T04:50:54;15.70;;;6.20;;
48751;SDS011;34544;48.836;9.174;2023-05-29T04:53:20;13.77;;;6.32;;
48751;SDS011;34544;48.836;9.174;2023-05-29T04:55:47;11.02;;;5.78;;
48751;SDS011;34544;48.836;9.174;2023-05-29T04:58:12;9.93;;;6.50;;
48751;SDS011;34544;48.836;9.174;2023-05-29T05:00:39;13.65;;;6.57;;
48751;SDS011;34544;48.836;9.174;2023-05-29T05:03:05;11.25;;;5.63;;
48751;SDS011;34544;48.836;9.174;2023-05-29T05:05:32;9.80;;;6.13;;
48751;SDS011;34544;48.836;9.174;2023-05-29T05:07:59;8.63;;;6.07;;
48751;SDS011;34544;48.836;9.174;2023-05-29T05:10:26;8.70;;;6.22;;
48751;SDS011;34544;48.836;9.174;2023-05-29T05:12:51;7.82;;;5.45;;
48751;SDS011;34544;48.836;9.174;2023-05-29T05:15:19;11.95;;;5.80;;
48751;SDS011;34544;48.836;9.174;2023-05-29T05:17:45;10.85;;;6.20;;
48751;SDS011;34544;48.836;9.174;2023-05-29T05:20:11;7.22;;;5.55;;
48751;SDS011;34544;48.836;9.174;2023-05-29T05:22:38;10.25;;;6.05;;
48751;SDS011;34544;48.836;9.174;2023-05-29T05:25:04;12.93;;;7.22;;
48751;SDS011;34544;48.836;9.174;2023-05-29T05:27:30;10.65;;;5.53;;
48751;SDS011;34544;48.836;9.174;2023-05-29T05:29:56;7.88;;;5.38;;
48751;SDS011;34544;48.836;9.174;2023-05-29T05:32:22;7.85;;;5.85;;
48751;SDS011;34544;48.836;9.174;2023-05-29T05:34:55;8.88;;;6.22;;
48751;SDS011;34544;48.836;9.174;2023-05-29T05:37:22;9.30;;;4.93;;
48751;SDS011;34544;48.836;9.174;2023-05-29T05:39:49;8.88;;;5.45;;
48751;SDS011;34544;48.836;9.174;2023-05-29T05:42:16;13.38;;;6.05;;
48751;SDS011;34544;48.836;9.174;2023-05-29T05:44:53;10.32;;;5.03;;
48751;SDS011;34544;48.836;9.174;2023-05-29T05:47:18;7.97;;;5.15;;
48751;SDS011;34544;48.836;9.174;2023-05-29T05:49:44;7.38;;;4.45;;
48751;SDS011;34544;48.836;9.174;2023-05-29T05:52:10;9.30;;;5.65;;
48751;SDS011;34544;48.836;9.174;2023-05-29T05:54:35;9.88;;;5.43;;
48751;SDS011;34544;48.836;9.174;2023-05-29T05:57:01;7.68;;;4.47;;
48751;SDS011;34544;48.836;9.174;2023-05-29T05:59:28;9.05;;;5.38;;
48751;SDS011;34544;48.836;9.174;2023-05-29T06:01:54;11.57;;;4.95;;
48751;SDS011;34544;48.836;9.174;2023-05-29T06:04:20;8.07;;;4.80;;
48751;SDS011;34544;48.836;9.174;2023-05-29T06:06:46;6.25;;;5.05;;
48751;SDS011;34544;48.836;9.174;2023-05-29T06:09:12;7.93;;;4.88;;
48751;SDS011;34544;48.836;9.174;2023-05-29T06:11:38;9.20;;;5.45;;
48751;SDS011;34544;48.836;9.174;2023-05-29T06:14:05;10.20;;;5.47;;
48751;SDS011;34544;48.836;9.174;2023-05-29T06:16:31;7.03;;;4.78;;
48751;SDS011;34544;48.836;9.174;2023-05-29T06:18:57;7.50;;;4.95;;
48751;SDS011;34544;48.836;9.174;2023-05-29T06:21:24;6.15;;;4.55;;
48751;SDS011;34544;48.836;9.174;2023-05-29T06:23:54;7.90;;;4.88;;
48751;SDS011;34544;48.836;9.174;2023-05-29T06:26:20;6.97;;;4.22;;
48751;SDS011;34544;48.836;9.174;2023-05-29T06:28:48;7.68;;;4.80;;
48751;SDS011;34544;48.836;9.174;2023-05-29T06:31:14;6.47;;;4.55;;
48751;SDS011;34544;48.836;9.174;2023-05-29T06:33:39;12.07;;;5.75;;
48751;SDS011;34544;48.836;9.174;2023-05-29T06:36:05;7.35;;;5.05;;
48751;SDS011;34544;48.836;9.174;2023-05-29T06:38:33;5.97;;;4.10;;
48751;SDS011;34544;48.836;9.174;2023-05-29T06:40:59;7.88;;;5.05;;
48751;SDS011;34544;48.836;9.174;2023-05-29T06:43:25;9.88;;;4.15;;
48751;SDS011;34544;48.836;9.174;2023-05-29T06:45:55;6.90;;;3.63;;
48751;SDS011;34544;48.836;9.174;2023-05-29T06:48:21;7.78;;;5.00;;
48751;SDS011;34544;48.836;9.174;2023-05-29T06:50:48;10.10;;;4.10;;
48751;SDS011;34544;48.836;9.174;2023-05-29T06:53:34;5.57;;;3.78;;
48751;SDS011;34544;48.836;9.174;2023-05-29T06:56:01;7.68;;;4.05;;
48751;SDS011;34544;48.836;9.174;2023-05-29T06:58:29;5.45;;;3.88;;
48751;SDS011;34544;48.836;9.174;2023-05-29T07:00:56;7.10;;;3.60;;
48751;SDS011;34544;48.836;9.174;2023-05-29T07:03:29;5.47;;;3.38;;
48751;SDS011;34544;48.836;9.174;2023-05-29T07:05:55;9.00;;;3.83;;
48751;SDS011;34544;48.836;9.174;2023-05-29T07:08:22;5.15;;;3.25;;
48751;SDS011;34544;48.836;9.174;2023-05-29T07:10:50;8.10;;;3.78;;
48751;SDS011;34544;48.836;9.174;2023-05-29T07:13:17;6.25;;;3.33;;
48751;SDS011;34544;48.836;9.174;2023-05-29T07:15:43;6.60;;;3.80;;
48751;SDS011;34544;48.836;9.174;2023-05-29T07:18:11;5.00;;;3.78;;
48751;SDS011;34544;48.836;9.174;2023-05-29T07:20:38;8.68;;;3.25;;
48751;SDS011;34544;48.836;9.174;2023-05-29T07:23:04;6.68;;;3.80;;
48751;SDS011;34544;48.836;9.174;2023-05-29T07:25:31;5.20;;;3.83;;
48751;SDS011;34544;48.836;9.174;2023-05-29T07:27:57;4.65;;;3.80;;
48751;SDS011;34544;48.836;9.174;2023-05-29T07:30:23;5.72;;;4.30;;
48751;SDS011;34544;48.836;9.174;2023-05-29T07:32:50;6.10;;;3.25;;
48751;SDS011;34544;48.836;9.174;2023-05-29T07:35:15;6.60;;;3.63;;
48751;SDS011;34544;48.836;9.174;2023-05-29T07:37:41;6.97;;;4.63;;
48751;SDS011;34544;48.836;9.174;2023-05-29T07:40:09;7.13;;;3.63;;
48751;SDS011;34544;48.836;9.174;2023-05-29T07:42:53;3.60;;;2.78;;
48751;SDS011;34544;48.836;9.174;2023-05-29T07:45:21;7.53;;;3.90;;
48751;SDS011;34544;48.836;9.174;2023-05-29T07:47:47;5.95;;;3.58;;
48751;SDS011;34544;48.836;9.174;2023-05-29T07:50:14;4.30;;;3.17;;
48751;SDS011;34544;48.836;9.174;2023-05-29T07:52:41;5.35;;;3.50;;
48751;SDS011;34544;48.836;9.174;2023-05-29T07:55:09;4.15;;;2.72;;
48751;SDS011;34544;48.836;9.174;2023-05-29T07:57:38;9.30;;;3.70;;
48751;SDS011;34544;48.836;9.174;2023-05-29T08:00:05;6.25;;;3.75;;
48751;SDS011;34544;48.836;9.174;2023-05-29T08:02:33;13.43;;;3.47;;
48751;SDS011;34544;48.836;9.174;2023-05-29T08:05:21;6.57;;;3.60;;
48751;SDS011;34544;48.836;9.174;2023-05-29T08:07:46;7.40;;;4.13;;
48751;SDS011;34544;48.836;9.174;2023-05-29T08:10:13;4.85;;;3.90;;
48751;SDS011;34544;48.836;9.174;2023-05-29T08:12:39;6.13;;;3.17;;
48751;SDS011;34544;48.836;9.174;2023-05-29T08:15:07;5.57;;;3.47;;
48751;SDS011;34544;48.836;9.174;2023-05-29T08:17:34;5.68;;;3.17;;
48751;SDS011;34544;48.836;9.174;2023-05-29T08:20:00;6.38;;;4.05;;
48751;SDS011;34544;48.836;9.174;2023-05-29T08:22:29;6.80;;;3.60;;
48751;SDS011;34544;48.836;9.174;2023-05-29T08:24:55;11.73;;;4.28;;
48751;SDS011;34544;48.836;9.174;2023-05-29T08:27:21;5.28;;;3.35;;
48751;SDS011;34544;48.836;9.174;2023-05-29T08:29:46;9.63;;;3.58;;
48751;SDS011;34544;48.836;9.174;2023-05-29T08:32:12;5.25;;;3.78;;
48751;SDS011;34544;48.836;9.174;2023-05-29T08:34:38;6.07;;;4.35;;
48751;SDS011;34544;48.836;9.174;2023-05-29T08:37:03;5.05;;;3.17;;
48751;SDS011;34544;48.836;9.174;2023-05-29T08:39:30;4.55;;;3.20;;
48751;SDS011;34544;48.836;9.174;2023-05-29T08:41:59;7.25;;;3.55;;
48751;SDS011;34544;48.836;9.174;2023-05-29T08:44:32;8.82;;;3.97;;
48751;SDS011;34544;48.836;9.174;2023-05-29T08:47:00;7.55;;;4.30;;
48751;SDS011;34544;48.836;9.174;2023-05-29T08:49:39;10.00;;;3.63;;
48751;SDS011;34544;48.836;9.174;2023-05-29T08:52:16;8.05;;;4.07;;
48751;SDS011;34544;48.836;9.174;2023-05-29T08:54:44;6.38;;;3.90;;
48751;SDS011;34544;48.836;9.174;2023-05-29T08:57:10;3.72;;;2.85;;
48751;SDS011;34544;48.836;9.174;2023-05-29T08:59:37;6.68;;;3.90;;
48751;SDS011;34544;48.836;9.174;2023-05-29T09:02:07;5.75;;;3.50;;
48751;SDS011;34544;48.836;9.174;2023-05-29T09:04:32;7.18;;;3.45;;
48751;SDS011;34544;48.836;9.174;2023-05-29T09:06:59;8.88;;;3.63;;
48751;SDS011;34544;48.836;9.174;2023-05-29T09:09:25;6.63;;;4.28;;
48751;SDS011;34544;48.836;9.174;2023-05-29T09:11:52;5.30;;;3.45;;
48751;SDS011;34544;48.836;9.174;2023-05-29T09:14:31;5.10;;;3.40;;
48751;SDS011;34544;48.836;9.174;2023-05-29T09:16:59;5.22;;;3.78;;
48751;SDS011;34544;48.836;9.174;2023-05-29T09:19:25;6.90;;;4.20;;
48751;SDS011;34544;48.836;9.174;2023-05-29T09:21:51;7.35;;;3.80;;
48751;SDS011;34544;48.836;9.174;2023-05-29T09:24:16;5.07;;;3.47;;
48751;SDS011;34544;48.836;9.174;2023-05-29T09:26:51;6.68;;;3.80;;
48751;SDS011;34544;48.836;9.174;2023-05-29T09:29:17;4.75;;;3.28;;
48751;SDS011;34544;48.836;9.174;2023-05-29T09:31:45;6.40;;;4.20;;
48751;SDS011;34544;48.836;9.174;2023-05-29T09:34:12;7.20;;;3.58;;
48751;SDS011;34544;48.836;9.174;2023-05-29T09:36:38;5.32;;;3.50;;
48751;SDS011;34544;48.836;9.174;2023-05-29T09:39:04;5.40;;;3.63;;
48751;SDS011;34544;48.836;9.174;2023-05-29T09:41:31;5.20;;;3.55;;
48751;SDS011;34544;48.836;9.174;2023-05-29T09:43:56;5.38;;;3.35;;
48751;SDS011;34544;48.836;9.174;2023-05-29T09:46:25;11.52;;;3.83;;
48751;SDS011;34544;48.836;9.174;2023-05-29T09:48:51;8.85;;;3.17;;
48751;SDS011;34544;48.836;9.174;2023-05-29T09:51:23;4.38;;;3.30;;
48751;SDS011;34544;48.836;9.174;2023-05-29T09:53:49;5.30;;;3.42;;
48751;SDS011;34544;48.836;9.174;2023-05-29T09:56:19;7.18;;;3.10;;
48751;SDS011;34544;48.836;9.174;2023-05-29T09:58:49;3.17;;;2.88;;
48751;SDS011;34544;48.836;9.174;2023-05-29T10:01:17;5.47;;;3.28;;
48751;SDS011;34544;48.836;9.174;2023-05-29T10:03:43;5.70;;;3.00;;
48751;SDS011;34544;48.836;9.174;2023-05-29T10:06:14;6.43;;;3.20;;
48751;SDS011;34544;48.836;9.174;2023-05-29T10:08:45;5.75;;;3.83;;
48751;SDS011;34544;48.836;9.174;2023-05-29T10:11:14;5.35;;;3.15;;
48751;SDS011;34544;48.836;9.174;2023-05-29T10:13:44;16.08;;;4.45;;
48751;SDS011;34544;48.836;9.174;2023-05-29T10:16:14;5.18;;;3.17;;
48751;SDS011;34544;48.836;9.174;2023-05-29T10:18:47;8.35;;;2.90;;
48751;SDS011;34544;48.836;9.174;2023-05-29T10:21:16;4.80;;;3.03;;
48751;SDS011;34544;48.836;9.174;2023-05-29T10:23:45;5.60;;;2.92;;
48751;SDS011;34544;48.836;9.174;2023-05-29T10:26:19;5.38;;;3.50;;
48751;SDS011;34544;48.836;9.174;2023-05-29T10:28:50;6.68;;;3.08;;
48751;SDS011;34544;48.836;9.174;2023-05-29T10:31:33;5.47;;;3.35;;
48751;SDS011;34544;48.836;9.174;2023-05-29T10:37:04;6.00;;;3.30;;
48751;SDS011;34544;48.836;9.174;2023-05-29T10:39:34;7.22;;;3.20;;
48751;SDS011;34544;48.836;9.174;2023-05-29T10:42:00;5.10;;;2.65;;
48751;SDS011;34544;48.836;9.174;2023-05-29T10:49:25;5.30;;;2.85;;
48751;SDS011;34544;48.836;9.174;2023-05-29T10:51:51;4.82;;;3.13;;
48751;SDS011;34544;48.836;9.174;2023-05-29T10:54:21;4.13;;;3.08;;
48751;SDS011;34544;48.836;9.174;2023-05-29T10:59:18;8.20;;;3.55;;
48751;SDS011;34544;48.836;9.174;2023-05-29T11:01:43;4.70;;;2.55;;
48751;SDS011;34544;48.836;9.174;2023-05-29T11:06:50;4.00;;;2.83;;
48751;SDS011;34544;48.836;9.174;2023-05-29T11:09:30;4.43;;;3.15;;
48751;SDS011;34544;48.836;9.174;2023-05-29T11:12:12;4.38;;;2.95;;
48751;SDS011;34544;48.836;9.174;2023-05-29T11:15:07;3.85;;;2.72;;
48751;SDS011;34544;48.836;9.174;2023-05-29T11:20:08;4.88;;;2.90;;
48751;SDS011;34544;48.836;9.174;2023-05-29T11:22:53;4.68;;;2.88;;
48751;SDS011;34544;48.836;9.174;2023-05-29T11:25:27;4.53;;;2.90;;
48751;SDS011;34544;48.836;9.174;2023-05-29T11:27:53;4.32;;;2.30;;
48751;SDS011;34544;48.836;9.174;2023-05-29T11:30:19;4.13;;;2.95;;
48751;SDS011;34544;48.836;9.174;2023-05-29T11:32:45;4.93;;;2.97;;
48751;SDS011;34544;48.836;9.174;2023-05-29T11:35:12;4.00;;;3.15;;
48751;SDS011;34544;48.836;9.174;2023-05-29T11:37:39;3.63;;;2.42;;
48751;SDS011;34544;48.836;9.174;2023-05-29T11:40:08;4.75;;;2.50;;
48751;SDS011;34544;48.836;9.174;2023-05-29T11:42:44;5.93;;;3.17;;
48751;SDS011;34544;48.836;9.174;2023-05-29T11:45:15;3.45;;;2.35;;
48751;SDS011;34544;48.836;9.174;2023-05-29T11:50:20;3.00;;;2.28;;
48751;SDS011;34544;48.836;9.174;2023-05-29T11:52:50;4.93;;;2.88;;
48751;SDS011;34544;48.836;9.174;2023-05-29T11:55:18;5.63;;;2.53;;
48751;SDS011;34544;48.836;9.174;2023-05-29T11:57:55;4.55;;;2.42;;
48751;SDS011;34544;48.836;9.174;2023-05-29T12:00:22;3.42;;;2.50;;
48751;SDS011;34544;48.836;9.174;2023-05-29T12:02:48;4.68;;;2.33;;
48751;SDS011;34544;48.836;9.174;2023-05-29T12:05:15;5.95;;;2.33;;
48751;SDS011;34544;48.836;9.174;2023-05-29T12:07:46;5.18;;;2.53;;
48751;SDS011;34544;48.836;9.174;2023-05-29T12:10:16;4.25;;;2.72;;
48751;SDS011;34544;48.836;9.174;2023-05-29T12:12:47;2.60;;;2.33;;
48751;SDS011;34544;48.836;9.174;2023-05-29T12:15:15;4.03;;;2.58;;
48751;SDS011;34544;48.836;9.174;2023-05-29T12:17:42;3.72;;;2.42;;
48751;SDS011;34544;48.836;9.174;2023-05-29T12:20:09;3.80;;;2.42;;
48751;SDS011;34544;48.836;9.174;2023-05-29T12:22:37;4.13;;;2.50;;
48751;SDS011;34544;48.836;9.174;2023-05-29T12:25:05;2.45;;;2.22;;
48751;SDS011;34544;48.836;9.174;2023-05-29T12:30:27;3.30;;;2.70;;
48751;SDS011;34544;48.836;9.174;2023-05-29T12:32:52;4.38;;;2.55;;
48751;SDS011;34544;48.836;9.174;2023-05-29T12:35:22;4.07;;;2.50;;
48751;SDS011;34544;48.836;9.174;2023-05-29T12:37:55;5.25;;;2.30;;
48751;SDS011;34544;48.836;9.174;2023-05-29T12:40:26;2.72;;;2.53;;
48751;SDS011;34544;48.836;9.174;2023-05-29T12:43:03;3.00;;;2.53;;
48751;SDS011;34544;48.836;9.174;2023-05-29T12:45:31;4.03;;;3.22;;
48751;SDS011;34544;48.836;9.174;2023-05-29T12:48:01;3.03;;;2.58;;
48751;SDS011;34544;48.836;9.174;2023-05-29T12:50:29;3.15;;;2.53;;
48751;SDS011;34544;48.836;9.174;2023-05-29T12:53:04;5.53;;;2.78;;
48751;SDS011;34544;48.836;9.174;2023-05-29T12:55:37;4.05;;;2.20;;
48751;SDS011;34544;48.836;9.174;2023-05-29T12:58:04;2.75;;;2.35;;
48751;SDS011;34544;48.836;9.174;2023-05-29T13:00:31;3.65;;;2.63;;
48751;SDS011;34544;48.836;9.174;2023-05-29T13:03:01;4.03;;;2.38;;
48751;SDS011;34544;48.836;9.174;2023-05-29T13:05:27;3.97;;;2.70;;
48751;SDS011;34544;48.836;9.174;2023-05-29T13:07:52;3.20;;;2.42;;
48751;SDS011;34544;48.836;9.174;2023-05-29T13:10:19;3.75;;;2.75;;
48751;SDS011;34544;48.836;9.174;2023-05-29T13:12:45;3.92;;;2.55;;
48751;SDS011;34544;48.836;9.174;2023-05-29T13:15:19;3.05;;;2.75;;
48751;SDS011;34544;48.836;9.174;2023-05-29T13:17:48;4.43;;;3.05;;
48751;SDS011;34544;48.836;9.174;2023-05-29T13:20:14;4.75;;;3.00;;
48751;SDS011;34544;48.836;9.174;2023-05-29T13:22:41;6.18;;;2.88;;
48751;SDS011;34544;48.836;9.174;2023-05-29T13:25:08;3.33;;;2.42;;
48751;SDS011;34544;48.836;9.174;2023-05-29T13:27:38;6.35;;;2.65;;
48751;SDS011;34544;48.836;9.174;2023-05-29T13:30:06;3.55;;;2.95;;
48751;SDS011;34544;48.836;9.174;2023-05-29T13:32:32;7.35;;;3.72;;
48751;SDS011;34544;48.836;9.174;2023-05-29T13:34:58;3.67;;;2.95;;
48751;SDS011;34544;48.836;9.174;2023-05-29T13:37:24;4.13;;;2.25;;
48751;SDS011;34544;48.836;9.174;2023-05-29T13:39:50;3.05;;;2.50;;
48751;SDS011;34544;48.836;9.174;2023-05-29T13:42:16;2.47;;;2.28;;
48751;SDS011;34544;48.836;9.174;2023-05-29T13:44:42;3.10;;;2.40;;
48751;SDS011;34544;48.836;9.174;2023-05-29T13:47:08;3.33;;;2.67;;
48751;SDS011;34544;48.836;9.174;2023-05-29T13:49:34;3.45;;;2.47;;
48751;SDS011;34544;48.836;9.174;2023-05-29T13:52:00;4.28;;;2.63;;
48751;SDS011;34544;48.836;9.174;2023-05-29T13:54:27;3.60;;;2.90;;
48751;SDS011;34544;48.836;9.174;2023-05-29T13:56:55;2.78;;;2.22;;
48751;SDS011;34544;48.836;9.174;2023-05-29T13:59:22;8.57;;;3.35;;
48751;SDS011;34544;48.836;9.174;2023-05-29T14:01:47;2.85;;;2.53;;
48751;SDS011;34544;48.836;9.174;2023-05-29T14:04:13;2.65;;;2.22;;
48751;SDS011;34544;48.836;9.174;2023-05-29T14:06:39;2.78;;;2.22;;
48751;SDS011;34544;48.836;9.174;2023-05-29T14:09:05;5.10;;;2.85;;
48751;SDS011;34544;48.836;9.174;2023-05-29T14:11:34;4.30;;;2.78;;
48751;SDS011;34544;48.836;9.174;2023-05-29T14:14:03;3.90;;;2.70;;
48751;SDS011;34544;48.836;9.174;2023-05-29T14:16:29;6.85;;;2.92;;
48751;SDS011;34544;48.836;9.174;2023-05-29T14:18:55;2.95;;;2.53;;
48751;SDS011;34544;48.836;9.174;2023-05-29T14:21:21;3.13;;;2.30;;
48751;SDS011;34544;48.836;9.174;2023-05-29T14:23:46;3.25;;;2.30;;
48751;SDS011;34544;48.836;9.174;2023-05-29T14:26:12;3.35;;;2.67;;
48751;SDS011;34544;48.836;9.174;2023-05-29T14:28:38;3.25;;;2.42;;
48751;SDS011;34544;48.836;9.174;2023-05-29T14:31:04;3.85;;;2.80;;
48751;SDS011;34544;48.836;9.174;2023-05-29T14:33:30;2.92;;;2.63;;
48751;SDS011;34544;48.836;9.174;2023-05-29T14:35:56;4.45;;;2.67;;
48751;SDS011;34544;48.836;9.174;2023-05-29T14:38:22;5.07;;;2.72;;
48751;SDS011;34544;48.836;9.174;2023-05-29T14:40:48;3.72;;;3.38;;
48751;SDS011;34544;48.836;9.174;2023-05-29T14:43:14;3.53;;;3.05;;
48751;SDS011;34544;48.836;9.174;2023-05-29T14:45:40;3.22;;;2.92;;
48751;SDS011;34544;48.836;9.174;2023-05-29T14:48:05;3.58;;;2.53;;
48751;SDS011;34544;48.836;9.174;2023-05-29T14:50:31;3.45;;;2.67;;
48751;SDS011;34544;48.836;9.174;2023-05-29T14:52:57;2.58;;;2.17;;
48751;SDS011;34544;48.836;9.174;2023-05-29T14:55:22;15.52;;;2.80;;
48751;SDS011;34544;48.836;9.174;2023-05-29T14:57:48;2.80;;;2.10;;
48751;SDS011;34544;48.836;9.174;2023-05-29T15:00:14;2.53;;;2.30;;
48751;SDS011;34544;48.836;9.174;2023-05-29T15:02:40;5.78;;;2.35;;
48751;SDS011;34544;48.836;9.174;2023-05-29T15:05:06;2.97;;;2.53;;
48751;SDS011;34544;48.836;9.174;2023-05-29T15:07:32;3.33;;;2.58;;
48751;SDS011;34544;48.836;9.174;2023-05-29T15:10:01;2.75;;;2.20;;
48751;SDS011;34544;48.836;9.174;2023-05-29T15:12:30;3.45;;;2.58;;
48751;SDS011;34544;48.836;9.174;2023-05-29T15:14:57;2.72;;;2.47;;
48751;SDS011;34544;48.836;9.174;2023-05-29T15:17:22;2.72;;;2.28;;
48751;SDS011;34544;48.836;9.174;2023-05-29T15:19:48;4.18;;;2.58;;